Time;durP1;ratioP1;P1;durP2;ratioP2;P2;SDS_P1;SDS_P2;PMS_P1;PMS_P2;Temp;Humidity;BMP_temperature;BMP_pressure;BME280_temperature;BME280_humidity;BME280_pressure;Samples;Min_cycle;Max_cycle;Signal;HPM_P1;HPM_P2
2022/09/01 00:00:12;;;;;;;2.75;0.40;;;20.30;73.60;;;;;;4822857;29;20076;-91
2022/09/01 00:02:41;;;;;;;2.20;0.30;;;20.50;73.70;;;;;;4821757;29;20152;-88
2022/09/01 00:05:09;;;;;;;1.42;0.43;;;20.40;74.70;;;;;;4826501;29;20053;-93
2022/09/01 00:07:37;;;;;;;2.25;0.50;;;20.30;75.70;;;;;;4811243;29;20149;-92
2022/09/01 00:10:06;;;;;;;1.40;0.25;;;20.30;75.90;;;;;;4851688;29;20042;-87
2022/09/01 00:12:34;;;;;;;4.60;0.30;;;20.20;76.70;;;;;;4822437;29;20315;-88
2022/09/01 00:15:04;;;;;;;1.67;0.50;;;20.10;78.20;;;;;;4829547;29;20934;-87
2022/09/01 00:17:32;;;;;;;0.82;0.30;;;20.20;79.10;;;;;;4826684;29;20046;-88
2022/09/01 00:20:00;;;;;;;1.83;0.50;;;20.00;80.70;;;;;;4824041;29;20050;-88
2022/09/01 00:22:28;;;;;;;2.15;0.43;;;20.10;81.70;;;;;;4822172;29;20117;-87
2022/09/01 00:24:55;;;;;;;1.83;0.40;;;20.20;83.10;;;;;;4854709;29;20050;-89
2022/09/01 00:27:23;;;;;;;1.13;0.50;;;20.20;84.70;;;;;;4822141;29;20055;-90
2022/09/01 00:29:58;;;;;;;1.55;0.55;;;20.20;86.40;;;;;;4851855;29;20085;-90
2022/09/01 00:32:26;;;;;;;2.55;0.40;;;20.00;88.90;;;;;;4825669;29;20042;-90
2022/09/01 00:34:54;;;;;;;1.23;0.50;;;19.90;90.00;;;;;;4828934;29;20106;-92
2022/09/01 00:37:21;;;;;;;1.75;0.57;;;19.80;90.70;;;;;;4824541;29;20458;-93
2022/09/01 00:39:49;;;;;;;4.13;0.52;;;19.90;91.90;;;;;;4826288;29;20062;-95
2022/09/01 00:42:17;;;;;;;1.40;0.80;;;20.00;93.30;;;;;;4851080;29;20050;-94
2022/09/01 00:44:44;;;;;;;2.63;0.98;;;20.00;94.10;;;;;;4838270;29;20813;-92
2022/09/01 00:47:13;;;;;;;1.77;0.77;;;19.90;95.60;;;;;;4808149;29;20148;-91
2022/09/01 00:49:45;;;;;;;5.95;0.95;;;19.90;96.80;;;;;;4839654;29;20086;-90
2022/09/01 00:52:26;;;;;;;2.70;0.93;;;19.90;97.90;;;;;;4838504;29;20046;-90
2022/09/01 00:55:07;;;;;;;2.20;0.60;;;19.90;97.20;;;;;;4828955;29;20066;-89
2022/09/01 00:57:35;;;;;;;5.63;1.13;;;19.80;96.50;;;;;;4825431;29;20057;-90
2022/09/01 01:00:25;;;;;;;1.98;0.80;;;19.60;97.10;;;;;;4822792;29;20050;-88
2022/09/01 01:02:55;;;;;;;1.90;0.70;;;19.50;98.00;;;;;;4847858;29;20055;-89
2022/09/01 01:05:32;;;;;;;2.00;0.70;;;19.00;99.40;;;;;;4812651;29;20096;-93
2022/09/01 01:08:02;;;;;;;4.50;0.93;;;18.90;99.90;;;;;;4820846;29;20107;-91
2022/09/01 01:10:32;;;;;;;1.83;0.90;;;18.80;99.90;;;;;;4829481;29;20049;-90
2022/09/01 01:13:03;;;;;;;2.58;0.93;;;18.40;99.90;;;;;;4820939;29;20157;-91
2022/09/01 01:15:31;;;;;;;3.03;1.25;;;18.50;99.90;;;;;;4844305;29;20108;-93
2022/09/01 01:17:58;;;;;;;3.38;1.15;;;18.60;99.90;;;;;;4822177;29;20507;-91
2022/09/01 02:12:50;;;;;;;5.72;2.20;;;18.50;99.90;;;;;;4868196;29;20048;-89
2022/09/01 02:38:40;;;;;;;3.08;1.20;;;18.30;99.90;;;;;;4864820;29;20045;-85
2022/09/01 02:49:46;;;;;;;2.85;1.23;;;17.70;99.90;;;;;;4844909;29;20515;-81
2022/09/01 03:06:53;;;;;;;2.28;0.93;;;17.50;99.90;;;;;;5038900;23;20041;31
2022/09/01 03:10:31;;;;;;;2.80;1.48;;;17.50;99.90;;;;;;5442407;23;19932;-84
2022/09/01 03:14:34;;;;;;;4.72;1.10;;;17.40;99.90;;;;;;4926353;23;20151;-83
2022/09/01 03:19:02;;;;;;;1.95;0.90;;;17.50;99.90;;;;;;4781831;29;20451;-82
2022/09/01 03:23:11;;;;;;;3.35;1.08;;;17.80;99.90;;;;;;4767125;24;20115;-83
2022/09/01 03:26:39;;;;;;;3.37;1.10;;;17.50;99.90;;;;;;5699484;23;20118;31
2022/09/01 03:30:00;;;;;;;2.13;0.93;;;17.40;99.90;;;;;;4829195;29;20062;-83
2022/09/01 03:48:08;;;;;;;2.85;0.90;;;17.30;99.90;;;;;;5176232;23;19985;31
2022/09/01 03:51:05;;;;;;;3.60;1.10;;;17.00;99.90;;;;;;5336316;23;20028;31
2022/09/01 03:54:14;;;;;;;3.45;1.10;;;17.40;99.90;;;;;;4832945;29;20115;-82
2022/09/01 03:57:40;;;;;;;2.65;1.20;;;17.40;99.90;;;;;;4789090;30;20127;-82
2022/09/01 04:05:36;;;;;;;3.40;0.90;;;17.70;99.90;;;;;;4633855;30;20113;-85
2022/09/01 04:09:51;;;;;;;4.13;1.00;;;17.80;99.90;;;;;;4654220;30;20106;-83
2022/09/01 04:13:55;;;;;;;2.72;1.10;;;17.80;99.90;;;;;;4877382;29;20059;-86
2022/09/01 05:10:13;;;;;;;2.00;0.93;;;17.50;99.90;;;;;;4856635;23;20390;-86
2022/09/01 05:17:40;;;;;;;2.95;1.17;;;17.10;99.90;;;;;;4885159;29;20101;-85
2022/09/01 05:20:15;;;;;;;3.03;0.90;;;17.10;99.90;;;;;;4811181;29;20054;-83
2022/09/01 05:22:53;;;;;;;5.20;1.30;;;17.00;99.90;;;;;;4830922;29;20046;-85
2022/09/01 05:26:20;;;;;;;4.10;1.00;;;17.20;99.90;;;;;;4786927;30;20073;-85
2022/09/01 05:28:53;;;;;;;3.88;1.02;;;17.10;99.90;;;;;;4760214;30;20075;-85
2022/09/01 05:31:36;;;;;;;4.53;1.00;;;17.20;99.90;;;;;;4743395;30;20147;-85
2022/09/01 05:34:25;;;;;;;3.28;1.00;;;17.00;99.90;;;;;;4770385;30;20048;-86
2022/09/01 05:37:29;;;;;;;3.83;0.95;;;16.90;99.90;;;;;;4749030;30;20052;-86
2022/09/01 06:20:26;;;;;;;3.65;1.63;;;17.40;99.90;;;;;;770888;23;20320;-82
2022/09/01 06:38:45;;;;;;;4.55;2.75;;;17.40;99.90;;;;;;4976511;24;20037;-85
2022/09/01 06:46:09;;;;;;;3.75;1.75;;;17.40;99.90;;;;;;5816348;23;20033;-84
2022/09/01 06:56:31;;;;;;;5.13;1.60;;;17.10;99.90;;;;;;5253545;23;21131;-85
2022/09/01 07:00:20;;;;;;;4.32;1.65;;;17.00;99.90;;;;;;4868264;23;20090;-82
2022/09/01 07:03:10;;;;;;;3.85;1.20;;;17.20;99.90;;;;;;4924628;23;20039;-85
2022/09/01 07:06:30;;;;;;;3.00;1.50;;;16.80;99.90;;;;;;5713837;24;20986;31
2022/09/01 07:16:39;;;;;;;2.35;1.02;;;17.20;99.90;;;;;;5738598;23;20053;31
2022/09/01 09:34:36;;;;;;;2.70;0.98;;;18.40;99.90;;;;;;4844386;29;20129;-93
2022/09/01 09:49:53;;;;;;;1.60;0.52;;;18.70;99.90;;;;;;643268;23;21581;-91
2022/09/01 09:52:22;;;;;;;3.45;0.65;;;18.70;99.90;;;;;;4859870;29;20643;-94
2022/09/01 09:58:15;;;;;;;1.88;0.50;;;18.60;99.50;;;;;;4961890;23;20057;-91
2022/09/01 10:01:03;;;;;;;3.15;0.60;;;18.60;99.20;;;;;;4878074;29;20112;-91
2022/09/01 10:04:09;;;;;;;2.28;0.70;;;18.60;98.50;;;;;;4872792;29;20052;-93
2022/09/01 10:06:40;;;;;;;1.15;0.30;;;18.70;98.00;;;;;;4847599;29;20098;-92
2022/09/01 10:09:15;;;;;;;3.75;0.50;;;18.80;98.50;;;;;;4857914;29;20046;-90
2022/09/01 10:11:48;;;;;;;2.25;0.63;;;18.80;96.80;;;;;;4876867;29;20067;-95
2022/09/01 10:14:20;;;;;;;2.97;0.40;;;18.90;95.50;;;;;;4877689;29;20044;-91
2022/09/01 10:17:14;;;;;;;1.95;0.52;;;18.80;95.60;;;;;;4865365;29;20052;-93
2022/09/01 10:20:20;;;;;;;2.35;0.68;;;19.00;96.30;;;;;;4868782;29;20466;-89
2022/09/01 10:22:49;;;;;;;3.42;1.30;;;19.10;96.90;;;;;;4860307;29;20045;-91
2022/09/01 10:25:27;;;;;;;2.50;0.40;;;19.10;96.20;;;;;;4868195;29;20048;-90
2022/09/01 10:28:01;;;;;;;3.30;0.55;;;19.00;96.70;;;;;;4867033;29;20049;-93
2022/09/01 10:30:29;;;;;;;1.50;0.60;;;19.10;96.20;;;;;;4879697;29;20300;-90
2022/09/01 10:32:59;;;;;;;1.13;0.30;;;19.10;96.70;;;;;;4874131;29;20104;-90
2022/09/01 10:35:44;;;;;;;4.30;0.40;;;19.20;95.60;;;;;;4868552;29;20143;-90
2022/09/01 10:38:24;;;;;;;1.25;0.52;;;19.20;95.90;;;;;;4864062;29;20505;-91
2022/09/01 10:41:06;;;;;;;3.15;0.45;;;19.20;95.80;;;;;;4858499;29;20056;-89
2022/09/01 10:43:50;;;;;;;1.35;0.50;;;19.40;96.10;;;;;;4861239;29;20080;-96
2022/09/01 10:46:21;;;;;;;1.65;0.60;;;19.40;95.10;;;;;;4881194;29;20052;-93
2022/09/01 10:49:17;;;;;;;2.20;0.50;;;19.50;94.80;;;;;;4867679;29;20053;-93
2022/09/01 10:51:53;;;;;;;1.67;0.30;;;19.50;94.30;;;;;;4857934;29;20093;-90
2022/09/01 10:54:52;;;;;;;2.03;0.40;;;19.60;94.50;;;;;;4877993;29;20060;-88
2022/09/01 10:57:39;;;;;;;2.35;0.40;;;19.60;93.40;;;;;;4867254;29;20064;-91
2022/09/01 11:00:42;;;;;;;3.20;0.50;;;19.60;93.90;;;;;;4840635;29;20726;-91
2022/09/01 11:03:49;;;;;;;2.90;0.32;;;19.70;92.50;;;;;;4843544;29;20095;-95
2022/09/01 11:06:40;;;;;;;1.23;0.43;;;19.90;92.80;;;;;;4853661;29;20042;-89
2022/09/01 11:09:23;;;;;;;1.15;0.30;;;20.10;91.60;;;;;;4844670;29;20064;-94
2022/09/01 11:12:06;;;;;;;1.42;0.25;;;20.30;90.50;;;;;;4858295;29;20075;-90
2022/09/01 11:14:45;;;;;;;1.70;0.30;;;20.20;87.20;;;;;;4847634;29;20049;-91
2022/09/01 11:17:29;;;;;;;1.08;0.30;;;20.50;87.40;;;;;;4839495;29;20051;-91
2022/09/01 11:20:07;;;;;;;1.05;0.50;;;20.60;84.10;;;;;;4848243;29;20072;-95
2022/09/01 11:22:44;;;;;;;5.07;0.40;;;20.70;80.20;;;;;;4857771;29;20067;-93
2022/09/01 11:25:33;;;;;;;2.42;0.20;;;20.70;79.60;;;;;;4852510;29;20045;-92
2022/09/01 11:28:14;;;;;;;0.55;0.15;;;20.70;77.10;;;;;;4839506;29;20057;-94
2022/09/01 11:31:05;;;;;;;1.13;0.20;;;20.70;77.80;;;;;;4838104;29;20049;-91
2022/09/01 11:33:51;;;;;;;0.93;0.22;;;20.60;75.30;;;;;;4837806;29;20156;-94
2022/09/01 11:36:28;;;;;;;0.98;0.20;;;20.70;76.50;;;;;;4848062;29;20524;-92
2022/09/01 11:39:32;;;;;;;1.75;0.20;;;21.10;76.60;;;;;;4834415;29;20054;-91
2022/09/01 11:42:05;;;;;;;1.17;0.20;;;21.30;75.40;;;;;;4840750;29;20310;-95
2022/09/01 11:44:33;;;;;;;1.75;0.20;;;21.40;73.60;;;;;;4856883;29;20049;-95
2022/09/01 11:47:15;;;;;;;1.77;0.20;;;21.40;71.30;;;;;;4861375;29;20045;-90
2022/09/01 11:50:08;;;;;;;0.82;0.10;;;21.30;70.80;;;;;;4851710;29;20080;-93
2022/09/01 11:52:37;;;;;;;1.30;0.28;;;21.40;70.00;;;;;;4847855;29;20049;-93
2022/09/01 11:55:06;;;;;;;0.65;0.10;;;21.40;69.60;;;;;;4844020;29;20042;-95
2022/09/01 11:57:37;;;;;;;1.00;0.13;;;21.40;68.00;;;;;;4863725;29;20055;-96
2022/09/01 12:00:13;;;;;;;0.80;0.10;;;21.30;67.40;;;;;;4873498;29;20045;-96
2022/09/01 12:02:48;;;;;;;2.90;0.13;;;21.30;66.40;;;;;;4869660;29;20075;-96
2022/09/01 12:05:37;;;;;;;0.82;0.10;;;21.20;68.40;;;;;;4877501;29;20044;-96
2022/09/01 12:08:13;;;;;;;1.42;0.20;;;21.20;65.70;;;;;;4857706;29;20049;-93
2022/09/01 12:10:43;;;;;;;0.43;0.15;;;21.20;66.00;;;;;;4859238;29;20068;-95
2022/09/01 12:13:22;;;;;;;1.05;0.20;;;21.20;66.80;;;;;;4871417;29;20052;-94
2022/09/01 12:15:55;;;;;;;0.47;0.20;;;21.30;66.60;;;;;;4860316;29;20052;-94
2022/09/01 12:18:50;;;;;;;0.55;0.20;;;21.40;65.40;;;;;;4869470;29;20055;-96
2022/09/01 12:21:30;;;;;;;0.85;0.20;;;21.40;64.60;;;;;;4871398;29;20055;-91
2022/09/01 12:24:18;;;;;;;0.60;0.20;;;21.40;65.20;;;;;;4861143;29;20065;-91
2022/09/01 12:26:48;;;;;;;0.45;0.15;;;21.40;64.80;;;;;;4876537;29;20054;-90
2022/09/01 12:29:16;;;;;;;0.30;0.10;;;21.40;65.30;;;;;;4859385;29;20048;-96
2022/09/01 12:31:47;;;;;;;1.08;0.13;;;21.30;64.20;;;;;;4851230;29;20053;-94
2022/09/01 12:34:37;;;;;;;0.73;0.30;;;21.30;64.50;;;;;;4875065;29;20071;-93
2022/09/01 12:37:05;;;;;;;1.98;0.10;;;21.40;64.50;;;;;;4862633;29;20057;-95
2022/09/01 12:39:41;;;;;;;0.50;0.10;;;21.50;64.30;;;;;;4860358;29;20097;-96
2022/09/01 12:42:26;;;;;;;1.58;0.20;;;21.40;63.00;;;;;;4875366;29;20049;-96
2022/09/01 12:45:13;;;;;;;1.65;0.20;;;21.50;63.20;;;;;;4863332;29;20061;-94
2022/09/01 12:47:46;;;;;;;0.38;0.10;;;21.50;64.30;;;;;;4891884;29;20056;-95
2022/09/01 12:50:15;;;;;;;1.60;0.30;;;21.60;64.50;;;;;;4877509;29;20041;-93
2022/09/01 12:53:02;;;;;;;1.63;0.47;;;21.60;62.80;;;;;;4881415;29;20053;-96
2022/09/01 12:55:33;;;;;;;0.73;0.13;;;21.80;61.70;;;;;;4864689;29;20048;-88
2022/09/01 12:58:23;;;;;;;0.65;0.10;;;21.70;61.90;;;;;;4864986;29;20080;-94
2022/09/01 13:01:01;;;;;;;1.98;0.28;;;21.70;61.90;;;;;;4867100;29;20068;-92
2022/09/01 13:03:31;;;;;;;0.98;0.10;;;21.70;60.80;;;;;;4872850;29;20053;-88
2022/09/01 13:06:02;;;;;;;0.73;0.30;;;21.70;61.40;;;;;;4860518;29;20055;-94
2022/09/01 13:08:34;;;;;;;0.60;0.10;;;21.80;60.80;;;;;;4875602;29;20052;-93
2022/09/01 13:11:14;;;;;;;1.15;0.10;;;21.90;59.70;;;;;;4873667;29;20045;-96
2022/09/01 13:13:42;;;;;;;1.58;0.10;;;22.00;60.20;;;;;;4851772;29;20072;-93
2022/09/01 13:16:11;;;;;;;0.28;0.10;;;21.90;59.80;;;;;;4876806;29;20052;-90
2022/09/01 13:18:41;;;;;;;0.90;0.10;;;21.90;59.50;;;;;;4867744;29;20045;-90
2022/09/01 13:21:30;;;;;;;1.85;0.20;;;22.00;58.20;;;;;;4867334;29;20052;-92
2022/09/01 13:23:58;;;;;;;1.42;0.10;;;22.00;58.80;;;;;;4863688;29;20493;-96
2022/09/01 13:26:25;;;;;;;2.28;0.20;;;22.00;58.30;;;;;;4857819;29;20068;-95
2022/09/01 13:28:53;;;;;;;0.32;0.13;;;22.00;58.90;;;;;;4853320;29;20048;-94
2022/09/01 13:31:20;;;;;;;1.33;0.20;;;22.00;58.60;;;;;;4865545;29;20052;-96
2022/09/01 13:33:58;;;;;;;0.50;0.10;;;22.00;58.20;;;;;;4868950;29;20053;-94
2022/09/01 13:36:45;;;;;;;0.70;0.20;;;22.00;59.10;;;;;;4875487;29;20049;-94
2022/09/01 13:39:17;;;;;;;;;;;22.10;60.20;;;;;;4869281;29;20049;-96
2022/09/01 13:41:47;;;;;;;2.58;0.50;;;22.20;59.00;;;;;;4879545;29;19927;-96
2022/09/01 13:44:14;;;;;;;1.92;0.17;;;22.20;59.30;;;;;;4868789;29;20553;-92
2022/09/01 13:46:45;;;;;;;0.32;0.25;;;22.10;58.90;;;;;;4877528;29;20154;-90
2022/09/01 13:49:32;;;;;;;0.52;0.10;;;22.20;59.00;;;;;;4882135;29;20051;-91
2022/09/01 13:52:20;;;;;;;0.50;0.10;;;22.10;59.00;;;;;;4863216;29;20053;-92
2022/09/01 13:54:47;;;;;;;1.45;0.10;;;22.10;58.70;;;;;;4876181;29;20049;-95
2022/09/01 13:57:15;;;;;;;0.28;0.10;;;22.30;57.60;;;;;;4877749;29;20588;-96
2022/09/01 13:59:43;;;;;;;1.75;0.10;;;22.20;56.70;;;;;;4876148;29;20045;-96
2022/09/01 14:02:10;;;;;;;0.90;0.10;;;22.30;58.10;;;;;;4866934;29;20109;-96
2022/09/01 14:04:37;;;;;;;0.30;0.10;;;22.30;58.00;;;;;;4877843;29;20348;-96
2022/09/01 14:07:05;;;;;;;0.50;0.10;;;22.20;58.30;;;;;;4873396;29;20041;-92
2022/09/01 14:09:33;;;;;;;1.10;0.10;;;22.20;58.80;;;;;;4875857;29;20718;-91
2022/09/01 14:12:00;;;;;;;0.57;0.10;;;22.10;58.80;;;;;;4851568;29;20097;-92
2022/09/01 14:14:28;;;;;;;1.98;0.13;;;22.10;58.40;;;;;;4867015;29;20065;-92
2022/09/01 14:17:16;;;;;;;1.67;0.20;;;22.20;58.30;;;;;;4877908;29;22278;-92
2022/09/01 14:19:49;;;;;;;0.40;0.10;;;22.20;57.80;;;;;;4877855;29;20053;-95
2022/09/01 14:22:16;;;;;;;0.82;0.10;;;22.10;58.40;;;;;;4862642;29;20063;-91
2022/09/01 14:24:44;;;;;;;4.68;0.20;;;22.20;56.70;;;;;;4861161;29;20109;-96
2022/09/01 14:27:11;;;;;;;0.55;0.10;;;22.10;56.80;;;;;;4865900;29;20045;-94
2022/09/01 14:29:39;;;;;;;2.10;0.20;;;22.20;55.30;;;;;;4861080;29;20056;-96
2022/09/01 14:32:06;;;;;;;0.25;0.10;;;22.10;56.70;;;;;;4866098;29;20038;-93
2022/09/01 14:34:35;;;;;;;1.08;0.10;;;22.10;57.30;;;;;;4865787;29;20068;-94
2022/09/01 14:37:02;;;;;;;1.38;0.10;;;22.10;57.00;;;;;;4856291;29;20494;-95
2022/09/01 14:39:30;;;;;;;1.83;0.10;;;22.10;58.90;;;;;;4879974;29;20060;-94
2022/09/01 14:41:57;;;;;;;0.65;0.20;;;22.10;59.70;;;;;;4863669;29;20065;-96
2022/09/01 14:44:25;;;;;;;0.38;0.10;;;22.10;61.00;;;;;;4870536;29;20050;-93
2022/09/01 14:46:53;;;;;;;0.68;0.10;;;22.00;60.50;;;;;;4872731;29;20072;-92
2022/09/01 14:49:20;;;;;;;1.15;0.10;;;22.00;61.30;;;;;;4871969;29;20133;-93
2022/09/01 14:51:48;;;;;;;0.52;0.13;;;22.00;61.00;;;;;;4849569;29;20048;-95
2022/09/01 14:54:38;;;;;;;0.43;0.10;;;22.00;62.40;;;;;;4857993;29;20072;-91
2022/09/01 14:57:05;;;;;;;0.47;0.10;;;22.00;61.50;;;;;;4854783;29;20058;-92
2022/09/01 14:59:53;;;;;;;0.30;0.10;;;22.00;61.70;;;;;;4843166;29;20049;-92
2022/09/01 15:02:20;;;;;;;1.45;0.10;;;22.00;61.80;;;;;;4841069;29;20108;-96
2022/09/01 15:04:48;;;;;;;4.50;1.77;;;22.00;61.70;;;;;;4855145;29;20049;-92
2022/09/01 15:07:16;;;;;;;0.88;0.20;;;21.90;62.60;;;;;;4846009;29;20096;-93
2022/09/01 15:09:43;;;;;;;2.15;0.10;;;21.90;62.20;;;;;;4855695;29;20151;-96
2022/09/01 15:12:11;;;;;;;0.88;0.35;;;21.90;61.00;;;;;;4848137;29;20071;-95
2022/09/01 15:14:38;;;;;;;1.58;0.20;;;21.90;60.70;;;;;;4834720;29;20056;-96
2022/09/01 15:17:06;;;;;;;1.70;0.25;;;21.90;62.30;;;;;;4855920;29;20053;-95
2022/09/01 15:19:34;;;;;;;0.77;0.20;;;21.90;62.50;;;;;;4838272;29;20080;-96
2022/09/01 15:22:02;;;;;;;1.17;0.10;;;21.90;61.50;;;;;;4841376;29;20105;-93
2022/09/01 15:24:29;;;;;;;0.63;0.22;;;21.90;60.70;;;;;;4858616;29;20050;-93
2022/09/01 15:26:56;;;;;;;0.88;0.10;;;21.90;62.00;;;;;;4846977;29;20056;-95
2022/09/01 15:29:24;;;;;;;0.43;0.10;;;21.90;61.60;;;;;;4863281;29;20497;-93
2022/09/01 15:31:53;;;;;;;0.82;0.10;;;21.90;60.50;;;;;;4846010;29;20053;-95
2022/09/01 15:34:23;;;;;;;0.50;0.20;;;21.90;62.10;;;;;;4848586;29;20052;-95
2022/09/01 15:36:50;;;;;;;1.05;0.15;;;21.90;62.80;;;;;;4837261;29;20064;-93
2022/09/01 15:39:17;;;;;;;1.13;0.10;;;22.00;63.60;;;;;;4839625;29;20045;-94
2022/09/01 15:41:45;;;;;;;0.50;0.10;;;22.00;62.80;;;;;;4851945;29;20049;-96
2022/09/01 15:44:12;;;;;;;0.70;0.20;;;21.90;62.30;;;;;;4838124;29;20067;-92
2022/09/01 15:46:41;;;;;;;0.45;0.10;;;21.90;61.40;;;;;;4840122;29;20532;-96
2022/09/01 15:49:11;;;;;;;0.95;0.20;;;21.90;61.50;;;;;;4844256;29;20136;-94
2022/09/01 15:51:40;;;;;;;1.95;0.22;;;21.90;60.90;;;;;;4838118;29;20165;-93
2022/09/01 15:54:17;;;;;;;1.42;0.10;;;21.90;62.00;;;;;;4852621;29;20085;-96
2022/09/01 15:56:46;;;;;;;1.40;0.20;;;21.90;62.60;;;;;;4852782;29;20053;-94
2022/09/01 15:59:14;;;;;;;1.45;0.10;;;21.90;61.80;;;;;;4853504;29;20049;-93
2022/09/01 16:01:44;;;;;;;1.27;0.10;;;21.90;60.30;;;;;;4857418;29;20498;-93
2022/09/01 16:04:15;;;;;;;1.15;0.10;;;21.90;59.00;;;;;;4855466;29;20045;-94
2022/09/01 16:06:48;;;;;;;0.70;0.10;;;21.90;59.20;;;;;;4857423;29;20090;-93
2022/09/01 16:09:17;;;;;;;0.43;0.10;;;21.80;59.10;;;;;;4855939;29;20045;-92
2022/09/01 16:11:44;;;;;;;1.13;0.20;;;21.80;59.50;;;;;;4867186;29;20530;-94
2022/09/01 16:14:12;;;;;;;0.75;0.20;;;21.80;59.60;;;;;;4858531;29;20139;-93
2022/09/01 16:16:58;;;;;;;1.35;0.20;;;21.80;60.30;;;;;;4851584;29;20057;-96
2022/09/01 16:19:44;;;;;;;1.35;0.28;;;21.80;59.10;;;;;;4887874;29;20045;-93
2022/09/01 16:22:20;;;;;;;1.10;0.10;;;21.70;59.60;;;;;;4850917;29;20060;-93
2022/09/01 16:24:50;;;;;;;0.40;0.10;;;21.60;59.10;;;;;;4844977;29;20053;-96
2022/09/01 16:27:20;;;;;;;1.83;0.10;;;21.60;58.60;;;;;;4839615;29;20049;-96
2022/09/01 16:29:54;;;;;;;0.45;0.10;;;21.60;58.70;;;;;;4862721;29;20057;-91
2022/09/01 16:32:22;;;;;;;0.55;0.17;;;21.50;59.60;;;;;;4855686;29;20060;-89
2022/09/01 16:34:50;;;;;;;0.85;0.30;;;21.40;59.80;;;;;;4838427;29;20045;-95
2022/09/01 16:37:37;;;;;;;1.15;0.20;;;21.40;60.00;;;;;;4855142;29;20056;-92
2022/09/01 16:40:36;;;;;;;0.75;0.15;;;21.30;59.70;;;;;;4847697;29;20486;-91
2022/09/01 16:43:16;;;;;;;0.75;0.20;;;21.20;60.60;;;;;;4860274;29;20057;-92
2022/09/01 16:45:46;;;;;;;1.08;0.10;;;21.20;61.30;;;;;;4848960;29;20041;-91
2022/09/01 16:48:40;;;;;;;2.70;0.20;;;21.20;60.30;;;;;;4856337;29;20150;-92
2022/09/01 16:51:30;;;;;;;0.47;0.10;;;21.10;61.00;;;;;;4832358;29;20188;-92
2022/09/01 16:54:07;;;;;;;0.88;0.10;;;21.10;63.20;;;;;;4842402;29;20053;-92
2022/09/01 16:56:53;;;;;;;0.60;0.13;;;21.00;62.20;;;;;;4785348;29;2022220;-92
2022/09/01 16:59:29;;;;;;;1.55;0.30;;;20.90;63.30;;;;;;4842476;29;20057;-92
2022/09/01 17:02:42;;;;;;;2.35;0.95;;;20.90;64.10;;;;;;4840334;29;20489;-92
2022/09/01 17:05:31;;;;;;;2.13;0.80;;;20.80;65.70;;;;;;4862414;29;20045;-92
2022/09/01 17:08:22;;;;;;;1.83;0.50;;;20.80;66.80;;;;;;4875960;29;20060;-91
2022/09/01 17:11:17;;;;;;;1.38;0.30;;;20.70;70.90;;;;;;4840663;29;20048;-94
2022/09/01 17:13:53;;;;;;;1.35;0.45;;;20.70;68.50;;;;;;4859358;29;20506;-92
2022/09/01 17:16:35;;;;;;;2.15;0.30;;;20.60;67.90;;;;;;4851005;29;20046;-91
2022/09/01 17:19:12;;;;;;;2.90;0.30;;;20.60;68.90;;;;;;4862102;29;20053;-91
2022/09/01 17:21:44;;;;;;;2.13;0.28;;;20.60;68.40;;;;;;4856886;29;20163;-91
2022/09/01 17:24:45;;;;;;;1.00;0.47;;;20.50;69.50;;;;;;4847516;29;20045;-91
2022/09/01 17:27:32;;;;;;;3.30;0.40;;;20.40;70.90;;;;;;4855775;29;20052;-92
2022/09/01 17:30:05;;;;;;;1.65;0.20;;;20.40;70.30;;;;;;4849804;29;20076;-92
2022/09/01 17:32:42;;;;;;;2.25;0.50;;;20.40;69.30;;;;;;4858769;29;20063;-90
2022/09/01 17:35:31;;;;;;;1.17;0.20;;;20.30;67.50;;;;;;4835244;29;20141;-92
2022/09/01 17:38:12;;;;;;;2.03;0.30;;;20.30;66.80;;;;;;4858893;29;20049;-92
2022/09/01 17:40:39;;;;;;;1.33;0.25;;;20.20;70.00;;;;;;4863118;29;20101;-92
2022/09/01 17:43:26;;;;;;;2.17;0.75;;;20.20;72.50;;;;;;4857368;29;20135;-91
2022/09/01 17:46:18;;;;;;;1.00;0.30;;;20.10;73.40;;;;;;4860227;29;20041;-92
2022/09/01 17:49:09;;;;;;;2.40;0.45;;;20.10;74.20;;;;;;4858695;29;20049;-92
2022/09/01 17:51:51;;;;;;;3.53;0.50;;;20.00;73.10;;;;;;4852927;29;20053;-92
2022/09/01 17:54:42;;;;;;;6.70;1.60;;;20.00;72.50;;;;;;4852173;29;20132;-92
2022/09/01 17:57:31;;;;;;;3.17;1.40;;;19.90;74.90;;;;;;4864785;29;20045;-92
2022/09/01 18:00:32;;;;;;;5.32;1.13;;;19.90;78.60;;;;;;4870930;29;20060;-93
2022/09/01 18:03:09;;;;;;;4.60;1.20;;;19.80;77.70;;;;;;4852445;29;20119;-92
2022/09/01 18:05:44;;;;;;;4.60;0.93;;;19.80;77.40;;;;;;4861005;29;20081;-92
2022/09/01 18:08:24;;;;;;;4.07;0.93;;;19.80;79.10;;;;;;4871994;29;20142;-92
2022/09/01 18:11:04;;;;;;;5.68;0.93;;;19.70;81.50;;;;;;4874054;29;20052;-92
2022/09/01 18:14:01;;;;;;;7.15;0.73;;;19.70;81.10;;;;;;4864059;29;20051;-93
2022/09/01 18:16:33;;;;;;;3.08;0.95;;;19.60;83.80;;;;;;4853447;29;20079;-93
2022/09/01 18:19:15;;;;;;;2.67;1.13;;;19.50;86.30;;;;;;4865949;29;20498;-92
2022/09/01 18:21:55;;;;;;;3.28;1.20;;;19.60;87.00;;;;;;4864411;29;20057;-92
2022/09/01 18:24:32;;;;;;;6.97;1.42;;;19.50;85.40;;;;;;4876271;29;20148;-93
2022/09/01 18:27:00;;;;;;;2.65;1.45;;;19.50;84.00;;;;;;4870128;29;20048;-93
2022/09/01 18:29:30;;;;;;;5.57;1.33;;;19.40;84.30;;;;;;4865574;29;20105;-92
2022/09/01 18:32:10;;;;;;;3.20;0.98;;;19.40;84.40;;;;;;4876068;29;20053;-93
2022/09/01 18:34:59;;;;;;;2.95;0.80;;;19.30;84.40;;;;;;4855642;29;20084;-93
2022/09/01 18:37:48;;;;;;;3.55;0.73;;;19.30;84.10;;;;;;4869558;29;20059;-93
2022/09/01 18:40:32;;;;;;;5.93;1.10;;;19.20;84.90;;;;;;4863382;29;20052;-92
2022/09/01 18:43:16;;;;;;;5.00;1.58;;;19.20;87.00;;;;;;4878934;29;20446;-93
2022/09/01 18:46:02;;;;;;;2.50;1.05;;;19.20;87.90;;;;;;4876664;29;20101;-93
2022/09/01 18:48:50;;;;;;;2.63;1.10;;;19.10;87.40;;;;;;4855572;29;20048;-93
2022/09/01 18:51:43;;;;;;;4.22;1.13;;;19.10;88.30;;;;;;4864909;29;20514;-93
2022/09/01 18:54:36;;;;;;;6.00;1.33;;;19.10;89.00;;;;;;4878853;29;20059;-92
2022/09/01 18:57:06;;;;;;;3.22;1.20;;;19.00;90.00;;;;;;4859357;29;20086;-92
2022/09/01 18:59:52;;;;;;;2.42;1.48;;;19.00;90.70;;;;;;4880206;29;20048;-93
2022/09/01 19:02:25;;;;;;;3.20;1.20;;;19.00;91.00;;;;;;4867237;29;20115;-92
2022/09/01 19:05:15;;;;;;;3.65;1.15;;;18.90;91.20;;;;;;4864845;29;20041;-92
2022/09/01 19:08:04;;;;;;;3.80;1.60;;;18.90;91.20;;;;;;4876796;29;20081;-93
2022/09/01 19:10:35;;;;;;;3.17;1.05;;;18.90;91.40;;;;;;4872873;29;20128;-93
2022/09/01 19:13:26;;;;;;;4.40;1.30;;;18.90;91.80;;;;;;4860590;29;20085;-92
2022/09/01 19:16:29;;;;;;;4.70;1.42;;;18.90;92.10;;;;;;4860241;29;20060;-92
2022/09/01 19:19:31;;;;;;;2.58;0.40;;;18.90;91.00;;;;;;4875813;29;20049;-93
2022/09/01 19:22:00;;;;;;;2.53;0.63;;;18.80;88.00;;;;;;4861828;29;20105;-92
2022/09/01 19:24:44;;;;;;;4.90;0.60;;;18.80;85.30;;;;;;4860282;29;20064;-92
2022/09/01 19:27:18;;;;;;;2.75;0.63;;;18.80;86.40;;;;;;4868486;29;20049;-93
2022/09/01 19:29:51;;;;;;;1.58;0.45;;;18.80;86.50;;;;;;4858271;29;20059;-93
2022/09/01 19:32:22;;;;;;;2.08;0.60;;;18.80;84.80;;;;;;4870324;29;20057;-93
2022/09/01 19:35:12;;;;;;;3.50;0.60;;;18.80;87.80;;;;;;4864024;29;20059;-93
2022/09/01 19:37:43;;;;;;;3.60;0.30;;;18.70;82.70;;;;;;4858664;29;20045;-92
2022/09/01 19:40:14;;;;;;;1.80;0.30;;;18.70;81.90;;;;;;4878150;29;20052;-92
2022/09/01 19:43:14;;;;;;;2.78;0.50;;;18.70;80.20;;;;;;4877437;29;20049;-93
2022/09/01 19:57:31;;;;;;;4.38;0.70;;;18.70;78.80;;;;;;4916424;24;20054;-92
2022/09/01 20:00:18;;;;;;;1.33;0.45;;;18.60;78.70;;;;;;4892786;29;20134;-92
2022/09/01 20:02:48;;;;;;;2.13;0.65;;;18.60;78.50;;;;;;4910744;29;20039;-93
2022/09/01 20:08:38;;;;;;;3.45;0.50;;;18.40;79.10;;;;;;4880980;23;20061;-94
2022/09/01 20:11:29;;;;;;;2.30;0.60;;;18.50;80.10;;;;;;4858135;29;20049;-93
